熊本空港の過去48時間の天気

熊本空港 (Kumamoto)

現在時刻: 1/21 13:11 JST (1/21 04:11 UTC) 以下の時間は現地時間です。

過去48時間のMETAR気象情報
時間 風向 風速(m/s) 視程 気温(℃) 湿度(%) 気圧(hPa) 天気現象
21 12:00 不定 2 10km以上 10 54 1026
21 11:00 北西 2 10km以上 8 57 1027
21 10:00 不定 1 10km以上 8 61 1028
21 09:00 南南西 1 10km以上 6 76 1027
21 08:00 不定 1 10km以上 2 87 1026
21 07:00 不定 1 10km以上 3 87 1026
21 06:10 不定 1 10km以上 3 81 1025
20 21:00 2 10km以上 5 75 1022
20 20:00 北西 2 10km以上 6 70 1022
20 19:00 静穏 0 10km以上 5 75 1022
20 18:00 不定 2 10km以上 8 61 1021
20 17:00 西 3 10km以上 9 57 1020
20 16:00 西北西 2 10km以上 9 62 1020
20 15:00 西北西 3 10km以上 10 58 1020
20 14:00 西北西 4 10km以上 9 57 1020
20 13:00 南南西 2 6000m 9 62 1020
20 12:00 不定 1 6000m 8 66 1021
20 11:00 不定 1 6000m 8 66 1021
20 10:00 不定 1 6000m 7 70 1021
20 09:00 西 2 6000m 7 76 1021
20 08:00 西 2 6000m 7 76 1020
20 07:00 不定 1 7000m 6 81 1020
20 06:10 不定 1 10km以上 7 76 1019
RJFT 210300Z VRB03KT CAVOK 10/01 Q1026
RJFT 210200Z 31003KT 240V360 9999 FEW035 08/00 Q1027
RJFT 210100Z VRB02KT 9999 FEW035 08/01 Q1028
RJFT 210000Z 21001KT 9999 FEW035 06/02 Q1027
RJFT 202300Z VRB01KT 9999 SCT035 02/00 Q1026
RJFT 202200Z VRB01KT 9999 BKN035 03/01 Q1026
RJFT 202110Z VRB01KT 9999 BKN035 03/00 Q1025 RMK 5SC035 A3027
RJFT 201200Z 36003KT 340V040 9999 FEW030 BKN045 05/01 Q1022
RJFT 201100Z 31003KT 9999 FEW030 SCT050 06/01 Q1022
RJFT 201000Z 00000KT 9999 FEW030 SCT050 05/01 Q1022
RJFT 200900Z VRB04KT 9999 FEW030 SCT050 08/01 Q1021
RJFT 200800Z 28006KT 220V310 9999 FEW035 BKN045 09/01 Q1020
RJFT 200700Z 29003KT 250V330 9999 SCT035 BKN045 09/02 Q1020
RJFT 200600Z 29006KT 9999 FEW035 BKN050 10/02 Q1020
RJFT 200500Z 29008KT 260V320 9999 FEW030 BKN035 BKN045 09/01 Q1020
RJFT 200400Z 20004KT 160V250 6000 BKN040 09/02 Q1020
RJFT 200300Z VRB02KT 6000 BKN035 08/02 Q1021
RJFT 200200Z VRB02KT 6000 BKN040 08/02 Q1021
RJFT 200100Z VRB02KT 6000 BKN040 BKN/// 07/02 Q1021
RJFT 200000Z 28003KT 240V310 6000 BKN040 07/03 Q1021
RJFT 192300Z 27003KT 6000 BKN040 07/03 Q1020
RJFT 192200Z VRB02KT 7000 SCT040 BKN050 06/03 Q1020
RJFT 192110Z VRB01KT 9999 BKN050 07/03 Q1019 RMK 7SC050 A3011